Terminal Aerodrome Forecast
Issued by NWS Albuquerque, NM

Home | Current Version | Previous Version | Text Only | Print | Product List | Glossary On
Versions: 1 2 3 4 5 6 7 8 9 10 11 12 13
592
FTUS45 KABQ 241134
TAFABQ
TAF
KABQ 241134Z 2412/2512 27015G25KT P6SM SCT045 BKN090
     FM241600 30022G32KT P6SM FEW050
      TEMPO 2419/2423 31025G37KT
     FM250200 35011KT P6SM SKC
     FM250500 VRB05KT P6SM SKC=

USA.gov is the U.S. government's official web portal to all federal, state and local government web resources and services.